Time;durP1;ratioP1;P1;durP2;ratioP2;P2;SDS_P1;SDS_P2;PMS_P1;PMS_P2;Temp;Humidity;BMP_temperature;BMP_pressure;BME280_temperature;BME280_humidity;BME280_pressure;Samples;Min_cycle;Max_cycle;Signal;HPM_P1;HPM_P2
2021/08/07 00:01:05;;;;;;;7.43;2.88;;;;;;;15.94;85.48;95554.31;5036824;28;20037;-78
2021/08/07 00:03:32;;;;;;;7.70;2.63;;;;;;;15.90;85.43;95541.91;5084311;22;20053;-84
2021/08/07 00:05:57;;;;;;;8.23;3.30;;;;;;;15.78;85.67;95537.03;5055610;28;20067;-83
2021/08/07 00:08:25;;;;;;;7.22;2.50;;;;;;;15.68;85.88;95529.97;5055146;28;20097;-84
2021/08/07 00:10:51;;;;;;;8.75;2.88;;;;;;;15.55;86.59;95521.88;5057411;28;20374;-84
2021/08/07 00:13:17;;;;;;;9.10;2.83;;;;;;;15.39;86.93;95505.38;5058439;28;20044;-83
2021/08/07 00:15:42;;;;;;;8.93;3.00;;;;;;;15.33;87.65;95525.84;5042439;28;20033;-84
2021/08/07 00:18:11;;;;;;;8.23;2.78;;;;;;;15.35;88.03;95521.06;5041976;28;20082;-82
2021/08/07 00:20:41;;;;;;;7.32;2.60;;;;;;;15.42;87.83;95520.72;5058101;28;20049;-84
2021/08/07 00:23:07;;;;;;;8.57;3.10;;;;;;;15.36;88.73;95522.63;5031568;28;20053;-86
2021/08/07 00:25:35;;;;;;;8.00;2.90;;;;;;;15.37;88.63;95523.44;5047330;28;20106;-84
2021/08/07 00:28:03;;;;;;;10.15;3.20;;;;;;;15.37;88.82;95521.56;5046314;28;20049;-86
2021/08/07 00:30:31;;;;;;;;;;;;;;;15.30;89.27;95510.53;5047384;28;20078;-84
2021/08/07 00:32:56;;;;;;;;;;;;;;;15.28;89.46;95507.34;5035098;28;19921;-84
2021/08/07 00:35:22;;;;;;;8.25;3.00;;;;;;;15.35;88.86;95502.50;5053063;28;19963;-84
2021/08/07 00:37:49;;;;;;;8.40;3.17;;;;;;;15.36;88.70;95514.69;5031959;28;20060;-84
2021/08/07 00:40:15;;;;;;;8.48;3.03;;;;;;;15.37;89.04;95524.22;5036217;28;20080;-85
2021/08/07 00:42:41;;;;;;;7.82;2.75;;;;;;;15.43;88.62;95528.38;5050151;28;20061;-86
2021/08/07 00:45:11;;;;;;;8.25;3.30;;;;;;;15.43;89.27;95527.59;5049887;28;20049;-85
2021/08/07 00:47:36;;;;;;;9.70;3.63;;;;;;;15.43;89.80;95533.69;5051479;28;20045;-84
2021/08/07 00:50:06;;;;;;;9.07;2.85;;;;;;;15.46;88.81;95522.53;5050370;28;20049;-85
2021/08/07 00:52:32;;;;;;;10.35;2.78;;;;;;;15.53;87.57;95524.03;5030190;28;20049;-84
2021/08/07 00:54:59;;;;;;;9.43;2.83;;;;;;;15.59;87.87;95518.38;5038491;28;20056;-85
2021/08/07 00:57:24;;;;;;;8.82;2.97;;;;;;;15.67;87.36;95506.41;5057635;28;20053;-85
2021/08/07 00:59:50;;;;;;;8.43;2.58;;;;;;;15.73;86.47;95499.97;5034647;28;20117;-83
2021/08/07 01:02:19;;;;;;;13.32;2.75;;;;;;;15.62;86.21;95503.78;5059414;28;20030;-84
2021/08/07 01:04:53;;;;;;;10.07;2.40;;;;;;;15.56;86.80;95491.69;5033487;28;20080;-84
2021/08/07 01:07:28;;;;;;;8.65;2.40;;;;;;;15.44;86.96;95490.22;5034139;28;20037;-86
2021/08/07 01:10:04;;;;;;;8.82;2.83;;;;;;;15.40;87.16;95488.41;5050108;28;20046;-85
2021/08/07 01:12:37;;;;;;;8.32;2.63;;;;;;;15.32;87.67;95492.47;5048195;28;20077;-84
2021/08/07 01:15:06;;;;;;;6.57;2.67;;;;;;;15.16;88.47;95494.50;5049806;28;20068;-84
2021/08/07 01:17:33;;;;;;;7.78;2.50;;;;;;;15.16;88.60;95510.41;5035408;28;20026;-85
2021/08/07 01:20:10;;;;;;;9.45;2.92;;;;;;;15.04;89.13;95495.97;5038840;28;20057;-85
2021/08/07 01:22:46;;;;;;;10.77;2.75;;;;;;;14.97;89.60;95493.66;5038804;28;20055;-85
2021/08/07 01:25:16;;;;;;;12.07;2.70;;;;;;;14.91;89.79;95486.84;5057491;28;20030;-84
2021/08/07 01:27:45;;;;;;;8.18;2.50;;;;;;;14.86;90.03;95482.38;5055977;28;20040;-85
2021/08/07 01:30:13;;;;;;;9.10;2.47;;;;;;;14.79;90.19;95489.06;5046555;28;20069;-84
2021/08/07 01:32:39;;;;;;;7.68;2.90;;;;;;;14.78;90.78;95487.47;5056320;28;20099;-83
2021/08/07 01:35:07;;;;;;;9.07;2.83;;;;;;;14.79;90.75;95492.50;5059278;28;20052;-84
2021/08/07 01:37:34;;;;;;;8.43;3.10;;;;;;;14.78;90.94;95496.22;5041340;28;20037;-84
2021/08/07 01:39:59;;;;;;;7.07;2.72;;;;;;;14.77;90.94;95494.63;5058813;28;20025;-84
2021/08/07 01:42:26;;;;;;;9.20;3.10;;;;;;;14.73;91.33;95490.97;5058667;28;20036;-85
2021/08/07 01:44:54;;;;;;;7.63;2.80;;;;;;;14.76;91.19;95486.97;5050166;28;20052;-86
2021/08/07 01:47:24;;;;;;;10.20;2.90;;;;;;;14.86;90.60;95492.97;5043333;28;20120;-85
2021/08/07 01:49:58;;;;;;;7.95;2.67;;;;;;;14.88;90.38;95466.22;5027772;28;20053;-83
2021/08/07 01:52:29;;;;;;;9.32;2.72;;;;;;;14.83;90.17;95472.34;5053609;28;20040;-85
2021/08/07 01:55:02;;;;;;;8.05;2.92;;;;;;;14.84;90.52;95465.19;5044354;28;20037;-85
2021/08/07 01:57:30;;;;;;;7.57;3.03;;;;;;;14.89;90.69;95460.63;5042884;28;20525;-86
2021/08/07 02:00:02;;;;;;;8.50;2.50;;;;;;;14.82;90.21;95459.38;5036289;28;20025;-82
2021/08/07 02:02:29;;;;;;;7.30;2.65;;;;;;;14.71;90.53;95458.69;5057907;28;20098;-83
2021/08/07 02:04:56;;;;;;;7.20;2.70;;;;;;;14.65;91.22;95457.19;5056645;28;20021;-85
2021/08/07 02:07:22;;;;;;;10.65;3.00;;;;;;;14.58;91.45;95452.22;5040707;28;20049;-85
2021/08/07 02:09:48;;;;;;;8.43;3.35;;;;;;;14.51;91.99;95453.59;5041715;28;20041;-85
2021/08/07 02:12:15;;;;;;;10.73;3.40;;;;;;;14.47;92.71;95463.94;5040454;28;20064;-85
2021/08/07 02:14:44;;;;;;;6.93;2.60;;;;;;;14.47;92.60;95460.47;5043000;28;20437;-85
2021/08/07 02:17:13;;;;;;;9.02;2.67;;;;;;;14.44;92.28;95462.63;5040478;28;20512;-85
2021/08/07 02:19:40;;;;;;;13.00;3.45;;;;;;;14.41;93.07;95470.31;5023170;28;20101;-84
2021/08/07 02:22:09;;;;;;;7.68;2.78;;;;;;;14.38;93.29;95474.31;5042616;28;20055;-84
2021/08/07 02:24:35;;;;;;;11.90;3.17;;;;;;;14.33;93.18;95457.69;5057663;28;20025;-83
2021/08/07 02:27:01;;;;;;;8.52;3.08;;;;;;;14.25;93.26;95445.03;5050251;28;20139;-86
2021/08/07 02:29:31;;;;;;;7.93;3.20;;;;;;;14.20;93.21;95435.28;5043902;28;20442;-84
2021/08/07 02:31:57;;;;;;;8.77;3.20;;;;;;;14.14;93.71;95433.75;5039297;28;20037;-84
2021/08/07 02:34:26;;;;;;;13.77;3.60;;;;;;;14.08;94.45;95440.94;5021690;28;20073;-84
2021/08/07 02:36:56;;;;;;;7.65;3.20;;;;;;;14.08;94.62;95440.16;5039137;28;20046;-84
2021/08/07 02:39:22;;;;;;;8.07;3.10;;;;;;;14.14;94.03;95434.53;5038561;28;20053;-85
2021/08/07 02:41:48;;;;;;;11.20;3.58;;;;;;;14.16;93.93;95452.81;5039548;28;20401;-84
2021/08/07 02:44:15;;;;;;;11.25;3.65;;;;;;;14.21;93.94;95442.19;5038807;28;20129;-84
2021/08/07 02:46:41;;;;;;;9.63;3.77;;;;;;;14.20;94.57;95437.94;5021253;28;20049;-84
2021/08/07 02:49:07;;;;;;;9.95;3.75;;;;;;;14.17;94.95;95433.22;5038465;28;20621;-85
2021/08/07 02:51:35;;;;;;;7.65;2.92;;;;;;;14.08;94.88;95434.88;5020956;28;20106;-85
2021/08/07 02:54:01;;;;;;;9.65;3.75;;;;;;;14.18;93.98;95446.16;5040288;28;20069;-85
2021/08/07 02:56:26;;;;;;;9.95;3.90;;;;;;;14.23;94.61;95447.19;5039635;28;20057;-85
2021/08/07 02:58:52;;;;;;;11.60;4.20;;;;;;;14.26;94.52;95428.91;5021937;28;20052;-84
2021/08/07 03:01:18;;;;;;;8.05;3.78;;;;;;;14.26;94.64;95436.03;5039815;28;20409;-85
2021/08/07 03:03:46;;;;;;;10.65;3.90;;;;;;;14.21;94.55;95428.97;5041883;28;20041;-84
2021/08/07 03:06:11;;;;;;;13.95;4.38;;;;;;;14.23;94.76;95436.59;5026829;28;20048;-85
2021/08/07 03:08:38;;;;;;;13.38;4.35;;;;;;;14.21;94.83;95434.25;5042076;28;20054;-85
2021/08/07 03:11:04;;;;;;;12.80;4.37;;;;;;;14.30;95.03;95448.44;5042016;28;20509;-85
2021/08/07 03:13:30;;;;;;;10.77;4.72;;;;;;;14.30;94.13;95451.09;5040262;28;20340;-84
2021/08/07 03:15:55;;;;;;;9.15;4.25;;;;;;;14.34;93.85;95444.19;5025430;28;20580;-85
2021/08/07 03:18:23;;;;;;;9.05;4.20;;;;;;;14.40;94.00;95432.47;5040074;28;20034;-85
2021/08/07 03:20:56;;;;;;;10.75;3.63;;;;;;;14.38;94.01;95431.97;5039924;28;20037;-84
2021/08/07 03:23:24;;;;;;;9.43;3.90;;;;;;;14.33;94.24;95433.88;5040650;28;20041;-83
2021/08/07 03:25:51;;;;;;;10.75;4.53;;;;;;;14.26;94.35;95442.16;5036264;28;20136;-82
2021/08/07 03:28:17;;;;;;;9.20;3.90;;;;;;;14.27;95.08;95441.06;5029459;28;20116;-84
2021/08/07 03:30:43;;;;;;;10.55;3.80;;;;;;;14.27;94.73;95432.34;5046486;28;20033;-84
2021/08/07 03:33:08;;;;;;;9.30;4.05;;;;;;;14.24;94.14;95440.81;5045973;28;20097;-85
2021/08/07 03:35:34;;;;;;;9.32;4.03;;;;;;;14.17;94.02;95434.00;5052164;28;20056;-84
2021/08/07 03:38:02;;;;;;;9.02;4.00;;;;;;;14.21;94.73;95433.47;5046701;28;20049;-84
2021/08/07 03:40:28;;;;;;;9.32;4.10;;;;;;;14.19;94.57;95441.66;5050863;28;20080;-83
2021/08/07 03:42:57;;;;;;;8.50;4.10;;;;;;;14.16;94.83;95443.00;5049096;28;20045;-85
2021/08/07 03:45:23;;;;;;;8.95;4.10;;;;;;;14.18;94.88;95440.09;5056123;28;20025;-84
2021/08/07 03:47:54;;;;;;;10.10;4.68;;;;;;;14.19;94.90;95434.50;5038749;28;20056;-84
2021/08/07 03:50:21;;;;;;;8.98;4.00;;;;;;;14.22;94.90;95440.31;5039095;28;20053;-84
2021/08/07 03:52:47;;;;;;;8.60;3.83;;;;;;;14.18;94.99;95437.44;5049841;28;20068;-84
2021/08/07 03:55:15;;;;;;;9.95;4.20;;;;;;;14.12;95.24;95436.69;5047305;28;20045;-84
2021/08/07 03:57:49;;;;;;;9.85;4.20;;;;;;;14.10;95.91;95440.69;5029772;28;20080;-85
2021/08/07 04:00:17;;;;;;;13.27;4.78;;;;;;;14.06;95.90;95431.72;5041039;28;20442;-84
2021/08/07 04:02:45;;;;;;;11.70;4.60;;;;;;;14.11;95.92;95429.03;5046127;28;20056;-83
2021/08/07 04:05:11;;;;;;;10.18;4.18;;;;;;;14.16;95.55;95431.66;5053272;28;20553;-84
2021/08/07 04:07:37;;;;;;;9.38;3.72;;;;;;;14.22;95.58;95425.25;5039429;28;20056;-86
2021/08/07 04:10:03;;;;;;;9.00;3.88;;;;;;;14.29;94.67;95428.34;5023418;28;20076;-84
2021/08/07 04:12:28;;;;;;;10.18;4.05;;;;;;;14.38;94.49;95416.09;5039925;28;20042;-85
2021/08/07 04:14:54;;;;;;;9.90;3.47;;;;;;;14.47;94.22;95420.78;5041295;28;20041;-85
2021/08/07 04:17:21;;;;;;;8.98;3.40;;;;;;;14.44;93.84;95414.97;5039423;28;20138;-85
2021/08/07 04:19:46;;;;;;;9.20;3.67;;;;;;;14.40;93.42;95411.31;5040630;28;20045;-84
2021/08/07 04:22:12;;;;;;;10.82;3.72;;;;;;;14.54;93.88;95413.34;5040696;28;20113;-85
2021/08/07 04:24:40;;;;;;;9.18;4.00;;;;;;;14.47;93.37;95405.72;5039000;28;20458;-85
2021/08/07 04:27:05;;;;;;;8.52;3.83;;;;;;;14.54;94.04;95405.41;5039407;28;20045;-85
2021/08/07 04:29:31;;;;;;;10.80;4.10;;;;;;;14.56;93.53;95398.75;5039683;28;20519;-87
2021/08/07 04:31:59;;;;;;;10.07;4.13;;;;;;;14.61;93.83;95405.84;5042098;28;20077;-86
2021/08/07 04:34:28;;;;;;;10.38;4.15;;;;;;;14.60;93.65;95405.06;5040328;28;20034;-85
2021/08/07 04:36:54;;;;;;;9.68;4.00;;;;;;;14.65;93.50;95397.09;5040233;28;20046;-84
2021/08/07 04:39:20;;;;;;;9.05;3.67;;;;;;;14.62;93.32;95381.75;5023127;28;20092;-85
2021/08/07 04:41:48;;;;;;;8.68;3.88;;;;;;;14.71;93.54;95360.75;5023069;28;20037;-84
2021/08/07 04:44:13;;;;;;;;;;;;;;;14.58;93.78;95377.28;5040426;28;20042;-85
2021/08/07 04:46:39;;;;;;;9.38;4.35;;;;;;;14.64;93.24;95389.44;5040455;28;19921;-85
2021/08/07 04:49:07;;;;;;;10.18;4.32;;;;;;;14.63;93.28;95388.63;5022693;28;20045;-83
2021/08/07 04:51:37;;;;;;;9.90;4.28;;;;;;;14.57;93.29;95384.44;5022991;28;20116;-84
2021/08/07 04:54:04;;;;;;;11.93;4.60;;;;;;;14.63;92.71;95383.31;5042027;28;20056;-85
2021/08/07 04:56:32;;;;;;;10.53;5.10;;;;;;;14.73;92.51;95384.28;5043829;28;20042;-84
2021/08/07 04:58:58;;;;;;;9.88;4.45;;;;;;;14.57;92.57;95381.81;5045541;28;20045;-85
2021/08/07 05:01:23;;;;;;;10.25;4.40;;;;;;;14.61;92.35;95395.28;5041306;28;20107;-85
2021/08/07 05:03:49;;;;;;;9.40;4.55;;;;;;;14.78;91.96;95392.97;5022976;28;20045;-85
2021/08/07 05:06:14;;;;;;;9.65;4.22;;;;;;;14.88;91.37;95403.44;5041023;28;20041;-85
2021/08/07 05:08:41;;;;;;;9.43;4.10;;;;;;;15.07;90.63;95398.22;5041852;28;20093;-85
2021/08/07 05:11:07;;;;;;;8.35;3.78;;;;;;;15.08;90.36;95397.13;5042881;28;20045;-85
2021/08/07 05:13:36;;;;;;;11.32;3.97;;;;;;;15.15;90.21;95386.19;5041007;28;20052;-84
2021/08/07 05:16:04;;;;;;;9.18;4.05;;;;;;;15.14;89.28;95388.03;5042798;28;20415;-83
2021/08/07 05:18:30;;;;;;;10.65;4.20;;;;;;;15.33;88.76;95381.97;5054041;28;20195;-84
2021/08/07 05:20:55;;;;;;;9.57;3.75;;;;;;;15.31;88.53;95382.25;5043806;28;20038;-85
2021/08/07 05:23:23;;;;;;;9.77;3.70;;;;;;;15.17;89.09;95386.66;5043082;28;20045;-84
2021/08/07 05:25:50;;;;;;;10.05;3.83;;;;;;;15.25;88.83;95388.69;5048439;28;20049;-85
2021/08/07 05:28:16;;;;;;;10.90;4.25;;;;;;;15.38;89.38;95389.84;5023733;28;20042;-84
2021/08/07 05:30:41;;;;;;;9.90;3.88;;;;;;;15.56;87.88;95385.66;5043232;28;20072;-85
2021/08/07 05:33:07;;;;;;;9.70;3.70;;;;;;;15.59;86.18;95387.72;5046115;28;20068;-85
2021/08/07 05:35:36;;;;;;;8.93;3.90;;;;;;;15.48;86.25;95377.25;5032169;28;20041;-85
2021/08/07 05:38:04;;;;;;;8.52;3.53;;;;;;;15.56;86.41;95383.00;5058117;28;20049;-84
2021/08/07 05:40:30;;;;;;;11.35;3.72;;;;;;;15.61;85.53;95386.38;5041612;28;20037;-85
2021/08/07 05:42:57;;;;;;;9.00;3.90;;;;;;;16.22;83.44;95406.66;5039298;28;20025;-83
2021/08/07 05:45:22;;;;;;;9.48;3.90;;;;;;;17.06;80.16;95392.44;5052941;28;20037;-85
2021/08/07 05:47:48;;;;;;;7.65;3.63;;;;;;;16.98;80.59;95391.25;5056226;28;20125;-84
2021/08/07 05:50:16;;;;;;;8.00;3.55;;;;;;;16.98;78.72;95385.94;5043330;28;20038;-85
2021/08/07 05:52:42;;;;;;;;;;;;;;;17.08;78.01;95378.84;5055214;28;20029;-84
2021/08/07 05:55:09;;;;;;;9.63;3.90;;;;;;;17.09;78.08;95375.09;5058360;28;19921;-84
2021/08/07 05:57:34;;;;;;;9.13;3.88;;;;;;;17.22;77.31;95374.28;5054482;28;20166;-86
2021/08/07 06:00:04;;;;;;;10.23;3.72;;;;;;;17.15;77.61;95379.22;5044687;28;20097;-85
2021/08/07 06:02:32;;;;;;;9.85;3.67;;;;;;;17.20;76.96;95374.59;5041342;28;20041;-86
2021/08/07 06:05:00;;;;;;;10.02;3.60;;;;;;;17.17;77.04;95372.53;5064560;22;20063;-80
2021/08/07 06:07:26;;;;;;;10.20;4.20;;;;;;;17.26;76.52;95369.97;5056164;28;20025;-80
2021/08/07 06:09:54;;;;;;;10.23;3.80;;;;;;;17.28;75.65;95375.78;5054944;28;20133;-79
2021/08/07 06:12:20;;;;;;;7.88;3.80;;;;;;;17.49;75.50;95376.91;5019084;28;20046;-79
2021/08/07 06:14:46;;;;;;;8.90;3.58;;;;;;;17.98;74.80;95380.63;5036027;28;20056;-80
2021/08/07 06:17:13;;;;;;;9.93;3.90;;;;;;;18.34;72.69;95387.72;5018671;28;20132;-80
2021/08/07 06:19:38;;;;;;;9.13;3.27;;;;;;;18.42;72.40;95381.66;5037222;28;20478;-79
2021/08/07 06:22:04;;;;;;;8.35;3.75;;;;;;;18.35;71.60;95376.78;5036699;28;20278;-79
2021/08/07 06:24:32;;;;;;;9.15;3.90;;;;;;;18.24;72.13;95377.31;5036758;28;20037;-79
2021/08/07 06:26:57;;;;;;;;;;;;;;;18.00;73.38;95389.06;5037163;28;20045;-79
2021/08/07 06:29:23;;;;;;;8.23;3.35;;;;;;;18.04;72.33;95378.63;5037450;28;19932;-79
2021/08/07 06:31:51;;;;;;;10.93;3.53;;;;;;;18.20;73.17;95369.16;5020390;28;20402;-79
2021/08/07 06:34:18;;;;;;;9.27;3.60;;;;;;;18.37;72.20;95365.81;5038210;28;20117;-79
2021/08/07 06:36:44;;;;;;;8.50;3.53;;;;;;;18.38;71.88;95370.03;5039070;28;20045;-78
2021/08/07 06:39:12;;;;;;;8.40;3.42;;;;;;;18.63;71.37;95382.72;5039931;28;20279;-79
2021/08/07 06:41:37;;;;;;;11.38;4.03;;;;;;;18.65;70.91;95386.94;5039719;28;20069;-79
2021/08/07 06:44:05;;;;;;;9.88;3.70;;;;;;;19.07;69.06;95394.34;5041800;28;20064;-80
2021/08/07 06:46:30;;;;;;;15.25;3.83;;;;;;;19.23;68.53;95396.59;5039229;28;20469;-79
2021/08/07 06:48:56;;;;;;;9.50;3.72;;;;;;;19.47;68.44;95386.25;5038401;28;20060;-79
2021/08/07 06:51:23;;;;;;;12.30;3.45;;;;;;;19.22;68.74;95368.34;5035819;28;20044;-80
2021/08/07 06:53:51;;;;;;;9.97;3.07;;;;;;;19.40;67.76;95367.28;5018000;28;20041;-79
2021/08/07 06:56:17;;;;;;;8.30;3.45;;;;;;;19.27;67.26;95349.56;5035622;28;20412;-79
2021/08/07 06:58:42;;;;;;;8.88;3.45;;;;;;;19.13;67.36;95355.78;5037241;28;20116;-80
2021/08/07 07:01:08;;;;;;;9.40;3.47;;;;;;;19.47;67.04;95353.47;5036763;28;20037;-80
2021/08/07 07:03:34;;;;;;;11.40;3.42;;;;;;;19.31;67.59;95351.25;5019510;28;20052;-80
2021/08/07 07:06:02;;;;;;;8.68;3.30;;;;;;;19.18;67.27;95344.19;5018803;28;20061;-80
2021/08/07 07:08:29;;;;;;;8.30;3.15;;;;;;;19.33;67.47;95348.28;5043264;28;20033;-80
2021/08/07 07:10:55;;;;;;;9.67;3.50;;;;;;;19.37;67.60;95354.56;5055839;28;20038;-80
2021/08/07 07:13:20;;;;;;;8.68;3.30;;;;;;;19.24;67.89;95355.50;5024473;28;20140;-80
2021/08/07 07:15:46;;;;;;;7.95;3.10;;;;;;;19.48;67.62;95361.19;5041510;28;20084;-80
2021/08/07 07:18:11;;;;;;;8.98;3.50;;;;;;;19.52;66.52;95367.44;5040284;28;20045;-78
2021/08/07 07:20:37;;;;;;;8.35;3.55;;;;;;;19.54;66.60;95370.59;5035380;28;20041;-79
2021/08/07 07:23:03;;;;;;;8.80;3.40;;;;;;;19.95;65.40;95376.56;5018662;28;20049;-79
2021/08/07 07:25:30;;;;;;;8.98;3.45;;;;;;;20.01;65.26;95370.75;5035249;28;20428;-79
2021/08/07 07:27:56;;;;;;;8.85;3.47;;;;;;;19.98;64.77;95368.75;5034068;28;20418;-80
2021/08/07 07:30:21;;;;;;;8.23;2.85;;;;;;;20.40;65.85;95377.00;5018296;28;20064;-80
2021/08/07 07:32:47;;;;;;;8.07;3.17;;;;;;;20.51;63.69;95374.78;5036132;28;20187;-79
2021/08/07 07:35:14;;;;;;;9.15;3.40;;;;;;;20.63;63.45;95362.34;5036041;28;20133;-79
2021/08/07 07:37:43;;;;;;;12.70;3.70;;;;;;;20.60;62.53;95354.94;5037117;28;20095;-80
2021/08/07 07:40:10;;;;;;;9.80;3.42;;;;;;;20.54;62.89;95363.44;5036913;28;20472;-79
2021/08/07 07:42:37;;;;;;;16.07;3.60;;;;;;;20.19;63.74;95366.97;5037278;28;20111;-80
2021/08/07 07:45:04;;;;;;;8.95;3.05;;;;;;;20.10;64.84;95365.41;5035954;28;20033;-80
2021/08/07 07:47:29;;;;;;;9.63;2.67;;;;;;;20.15;64.41;95374.03;5035371;28;20073;-79
2021/08/07 07:49:55;;;;;;;9.63;3.40;;;;;;;20.11;65.39;95367.75;5034812;28;20430;-80
2021/08/07 07:52:20;;;;;;;8.75;3.25;;;;;;;20.17;65.83;95385.19;5041421;28;20045;-79
2021/08/07 07:54:49;;;;;;;9.05;3.63;;;;;;;20.16;64.92;95383.63;5054361;28;20037;-80
2021/08/07 07:57:14;;;;;;;9.82;2.97;;;;;;;19.97;66.53;95372.50;5054732;28;20501;-79
2021/08/07 07:59:41;;;;;;;13.13;3.40;;;;;;;19.92;66.37;95380.69;5030082;28;20068;-80
2021/08/07 08:02:07;;;;;;;9.90;3.50;;;;;;;19.88;66.92;95369.84;5037891;28;20050;-80
2021/08/07 08:04:33;;;;;;;9.90;2.92;;;;;;;20.27;66.87;95359.25;5018978;28;20103;-79
2021/08/07 08:07:00;;;;;;;7.97;3.30;;;;;;;20.54;65.11;95385.63;5035007;28;20049;-79
2021/08/07 08:09:26;;;;;;;9.48;3.53;;;;;;;20.44;64.54;95364.56;5019067;28;20076;-80
2021/08/07 08:11:51;;;;;;;9.00;3.90;;;;;;;20.70;64.39;95357.25;5018502;28;20049;-80
2021/08/07 08:14:17;;;;;;;9.80;4.05;;;;;;;20.56;64.47;95362.03;5035742;28;20088;-80
2021/08/07 08:16:45;;;;;;;8.77;3.38;;;;;;;20.35;67.50;95371.81;5035660;28;20041;-79
2021/08/07 08:19:11;;;;;;;12.30;3.67;;;;;;;20.08;67.85;95371.09;5034724;28;20056;-79
2021/08/07 08:21:37;;;;;;;7.65;2.85;;;;;;;19.97;68.21;95369.84;5034335;28;20458;-81
2021/08/07 08:24:03;;;;;;;8.10;3.10;;;;;;;19.92;67.37;95364.66;5016225;28;20597;-79
2021/08/07 08:26:29;;;;;;;7.65;3.05;;;;;;;20.02;67.50;95361.66;5034732;28;20045;-79
2021/08/07 08:28:54;;;;;;;9.50;3.35;;;;;;;20.23;67.16;95352.97;5019442;28;20122;-80
2021/08/07 08:31:20;;;;;;;8.82;3.22;;;;;;;20.46;66.42;95341.03;5041183;28;20045;-80
2021/08/07 08:33:47;;;;;;;8.73;3.13;;;;;;;20.39;66.45;95324.66;5042098;28;20046;-80
2021/08/07 08:36:12;;;;;;;9.97;3.07;;;;;;;20.77;66.89;95334.59;5040996;28;20053;-80
2021/08/07 08:38:38;;;;;;;8.15;3.17;;;;;;;20.81;68.26;95328.28;5041223;28;20045;-80
2021/08/07 08:41:04;;;;;;;8.55;3.35;;;;;;;20.99;66.42;95320.97;5039876;28;20049;-79
2021/08/07 08:43:29;;;;;;;11.63;4.07;;;;;;;21.07;65.86;95316.69;5021451;28;20591;-80
2021/08/07 08:45:55;;;;;;;8.52;3.30;;;;;;;21.29;66.05;95310.25;5039785;28;20116;-80
2021/08/07 08:48:21;;;;;;;8.65;3.33;;;;;;;21.35;64.03;95317.78;5021134;28;20045;-79
2021/08/07 08:50:49;;;;;;;9.77;3.40;;;;;;;21.16;63.99;95310.16;5021735;28;20048;-80
2021/08/07 08:53:15;;;;;;;8.13;3.20;;;;;;;21.09;64.10;95299.19;5039085;28;20105;-80
2021/08/07 08:55:41;;;;;;;8.68;3.22;;;;;;;21.22;64.35;95313.44;5021759;28;20064;-81
2021/08/07 08:58:09;;;;;;;7.75;3.25;;;;;;;21.28;67.71;95306.00;5038528;28;20037;-79
2021/08/07 09:00:35;;;;;;;11.95;3.50;;;;;;;21.05;73.09;95309.00;5019949;28;20041;-79
2021/08/07 09:03:01;;;;;;;8.13;3.42;;;;;;;20.62;73.11;95320.69;5042548;28;20057;-80
2021/08/07 09:05:26;;;;;;;7.90;3.40;;;;;;;20.28;75.75;95318.09;5057314;28;20038;-80
2021/08/07 09:07:53;;;;;;;9.80;3.30;;;;;;;20.16;75.70;95310.75;5043181;28;20053;-79
2021/08/07 09:10:22;;;;;;;9.13;3.65;;;;;;;19.92;74.56;95295.25;5019733;28;20064;-79
2021/08/07 09:12:50;;;;;;;11.10;3.38;;;;;;;19.79;72.84;95301.56;5039428;28;20481;-81
2021/08/07 09:15:40;;;;;;;8.98;3.67;;;;;;;19.70;75.63;95314.13;5039423;28;20069;-80
2021/08/07 09:18:21;;;;;;;8.48;3.30;;;;;;;20.04;76.57;95314.06;5029417;28;20056;-80
2021/08/07 09:20:49;;;;;;;10.00;4.00;;;;;;;20.15;74.00;95303.84;5021797;28;20067;-80
2021/08/07 09:23:31;;;;;;;8.45;3.20;;;;;;;20.18;73.44;95304.00;5021371;28;20041;-80
2021/08/07 09:26:10;;;;;;;11.45;3.35;;;;;;;20.17;72.91;95299.75;5039341;28;20038;-79
2021/08/07 09:28:50;;;;;;;8.20;3.40;;;;;;;20.40;72.03;95300.31;5048115;28;20044;-81
2021/08/07 09:31:20;;;;;;;8.25;3.30;;;;;;;20.61;70.08;95308.44;5046552;28;20111;-80
2021/08/07 09:33:46;;;;;;;8.73;3.58;;;;;;;20.65;71.89;95312.00;5038368;28;20041;-79
2021/08/07 09:36:11;;;;;;;9.38;4.20;;;;;;;20.75;71.91;95304.75;5038048;28;20405;-80
2021/08/07 09:38:47;;;;;;;8.68;3.15;;;;;;;20.83;70.25;95306.59;5038497;28;20495;-79
2021/08/07 09:41:13;;;;;;;8.32;3.35;;;;;;;20.82;68.80;95297.00;5037087;28;20046;-79
2021/08/07 09:43:44;;;;;;;10.05;3.47;;;;;;;20.92;69.18;95313.44;5038796;28;20049;-80
2021/08/07 09:46:11;;;;;;;10.95;4.03;;;;;;;20.96;69.36;95305.56;5045987;28;20041;-80
2021/08/07 09:48:41;;;;;;;9.43;3.20;;;;;;;20.96;67.25;95301.00;5055969;28;20053;-81
2021/08/07 09:51:14;;;;;;;8.45;3.03;;;;;;;21.19;66.75;95309.50;5055963;28;20053;-80
2021/08/07 09:53:40;;;;;;;8.88;3.17;;;;;;;21.23;65.92;95315.78;5045575;28;20040;-80
2021/08/07 09:56:09;;;;;;;9.00;3.35;;;;;;;21.35;66.36;95312.41;5043240;28;20089;-80
2021/08/07 09:58:35;;;;;;;8.10;3.78;;;;;;;21.56;66.12;95309.75;5042695;28;20513;-80
2021/08/07 10:01:01;;;;;;;8.38;3.33;;;;;;;21.77;66.08;95314.31;5022043;28;20073;-79
2021/08/07 10:03:29;;;;;;;8.20;2.97;;;;;;;21.98;64.67;95317.72;5038410;28;20037;-79
2021/08/07 10:05:56;;;;;;;8.20;3.25;;;;;;;22.17;63.93;95320.72;5038357;28;20073;-79
2021/08/07 10:08:22;;;;;;;8.77;2.97;;;;;;;22.26;63.52;95307.22;5039586;28;20045;-79
2021/08/07 10:10:50;;;;;;;9.98;3.20;;;;;;;22.46;63.04;95302.91;5023800;28;20052;-79
2021/08/07 10:13:21;;;;;;;8.13;3.47;;;;;;;22.66;61.38;95309.31;5023947;28;20041;-79
2021/08/07 10:15:47;;;;;;;8.18;3.40;;;;;;;22.87;61.05;95304.63;5047179;28;20521;-79
2021/08/07 10:18:13;;;;;;;9.15;3.25;;;;;;;23.18;59.18;95298.66;5046275;28;20048;-79
2021/08/07 10:20:43;;;;;;;7.45;3.05;;;;;;;23.74;59.00;95293.41;5045753;28;20081;-80
2021/08/07 10:23:12;;;;;;;10.65;4.15;;;;;;;23.72;55.10;95301.00;5040072;28;20053;-79
2021/08/07 10:25:43;;;;;;;8.35;2.75;;;;;;;23.25;57.31;95306.94;5022491;28;20040;-80
2021/08/07 10:28:13;;;;;;;8.10;2.67;;;;;;;23.09;57.96;95310.66;5041758;28;20068;-80
2021/08/07 10:30:44;;;;;;;8.70;2.90;;;;;;;23.02;58.70;95303.16;5050786;28;20036;-79
2021/08/07 10:33:13;;;;;;;9.32;2.90;;;;;;;22.78;58.18;95307.41;5054782;28;20045;-79
2021/08/07 10:35:42;;;;;;;9.05;2.83;;;;;;;22.77;58.08;95305.06;5028569;28;20087;-80
2021/08/07 10:38:08;;;;;;;8.07;3.00;;;;;;;22.67;59.52;95311.63;5023629;28;20052;-80
2021/08/07 10:40:36;;;;;;;7.25;3.00;;;;;;;22.51;59.63;95308.06;5026973;28;20509;-80
2021/08/07 10:43:01;;;;;;;;;;;;;;;22.57;59.80;95300.56;5040510;28;20052;-79
2021/08/07 10:45:27;;;;;;;8.18;2.55;;;;;;;22.59;59.15;95309.84;5021575;28;20003;-79
2021/08/07 10:47:57;;;;;;;8.18;3.03;;;;;;;22.44;63.26;95303.25;5038133;28;20049;-79
2021/08/07 10:50:35;;;;;;;8.35;2.90;;;;;;;21.98;65.18;95298.97;5038014;28;20045;-79
2021/08/07 10:53:04;;;;;;;6.28;2.38;;;;;;;21.74;66.63;95303.16;5021401;28;20119;-79
2021/08/07 10:55:48;;;;;;;8.05;2.83;;;;;;;21.52;66.13;95295.44;5038712;28;20377;-79
2021/08/07 10:58:41;;;;;;;7.65;2.83;;;;;;;21.38;65.98;95287.69;5046381;28;20041;-78
2021/08/07 11:01:32;;;;;;;9.32;3.10;;;;;;;21.39;66.06;95296.50;5038062;28;20032;-80
2021/08/07 11:04:15;;;;;;;7.22;2.75;;;;;;;21.44;64.36;95302.44;5043634;28;20041;-80
2021/08/07 11:06:53;;;;;;;6.68;2.70;;;;;;;21.47;65.05;95314.38;5021356;28;20053;-80
2021/08/07 11:09:25;;;;;;;9.70;2.97;;;;;;;21.47;64.30;95319.72;5022532;28;20041;-80
2021/08/07 11:12:27;;;;;;;8.90;3.38;;;;;;;21.44;72.47;95317.72;5038421;28;20049;-80
2021/08/07 11:15:04;;;;;;;15.00;6.78;;;;;;;21.17;72.38;95306.38;5038500;28;20037;-81
2021/08/07 11:17:49;;;;;;;8.95;3.35;;;;;;;20.81;75.10;95288.19;5036646;28;20046;-79
2021/08/07 11:20:39;;;;;;;8.75;3.50;;;;;;;20.65;78.74;95289.84;5018572;28;20045;-79
2021/08/07 11:23:12;;;;;;;18.45;13.07;;;;;;;20.56;76.37;95302.50;5017658;28;20115;-79
2021/08/07 11:25:56;;;;;;;14.75;7.95;;;;;;;20.39;77.18;95300.63;5019759;28;20041;-79
2021/08/07 11:28:22;;;;;;;9.27;3.58;;;;;;;20.09;74.13;95307.78;5036966;28;20041;-79
2021/08/07 11:31:09;;;;;;;8.38;3.38;;;;;;;19.88;72.95;95305.00;5019354;28;20480;-79
2021/08/07 11:33:34;;;;;;;9.88;3.70;;;;;;;19.71;70.83;95310.38;5036844;28;20067;-80
2021/08/07 11:36:07;;;;;;;7.60;2.45;;;;;;;19.56;65.83;95301.69;5037591;28;20045;-79
2021/08/07 11:38:33;;;;;;;6.97;2.40;;;;;;;19.47;66.47;95294.78;5038164;28;20037;-79